createdAt,value
2022-09-20T00:02:47.717Z,1.80
2022-09-20T00:07:49.554Z,1.65
2022-09-20T00:12:51.361Z,2.00
2022-09-20T00:17:53.116Z,2.70
2022-09-20T00:22:54.833Z,1.95
2022-09-20T00:27:56.573Z,1.70
2022-09-20T00:32:58.377Z,1.90
2022-09-20T00:38:00.092Z,1.40
2022-09-20T00:43:01.795Z,1.40
2022-09-20T00:48:10.400Z,1.10
2022-09-20T00:53:14.242Z,1.50
2022-09-20T00:58:17.534Z,1.33
2022-09-20T01:03:22.999Z,1.40
2022-09-20T01:08:25.389Z,1.30
2022-09-20T01:13:27.144Z,2.35
2022-09-20T01:18:31.920Z,1.23
2022-09-20T01:24:15.692Z,1.40
2022-09-20T01:29:20.120Z,1.33
2022-09-20T01:34:33.522Z,1.20
2022-09-20T01:39:46.935Z,1.20
2022-09-20T01:45:19.648Z,1.20
2022-09-20T01:50:43.309Z,1.48
2022-09-20T01:56:29.276Z,1.67
2022-09-20T02:01:31.107Z,1.50
2022-09-20T02:06:47.438Z,4.50
2022-09-20T02:12:10.678Z,3.30
2022-09-20T02:17:40.064Z,5.57
2022-09-20T02:23:07.561Z,6.05
2022-09-20T02:28:53.983Z,5.45
2022-09-20T02:34:37.979Z,4.97
2022-09-20T02:39:54.050Z,4.28
2022-09-20T02:45:23.949Z,3.38
2022-09-20T02:56:12.182Z,2.00
2022-09-20T03:01:40.934Z,1.27
2022-09-20T03:06:58.274Z,1.40
2022-09-20T03:12:03.080Z,1.50
2022-09-20T03:17:21.955Z,1.10
2022-09-20T03:22:45.363Z,1.20
2022-09-20T03:28:25.968Z,1.50
2022-09-20T03:33:45.549Z,1.40
2022-09-20T03:44:19.100Z,1.48
2022-09-20T03:49:42.401Z,1.70
2022-09-20T03:54:54.042Z,3.63
2022-09-20T04:00:05.546Z,6.65
2022-09-20T04:05:53.879Z,9.23
2022-09-20T04:11:37.438Z,8.77
2022-09-20T04:17:12.060Z,7.88
2022-09-20T04:22:14.775Z,6.82
2022-09-20T04:27:49.832Z,6.30
2022-09-20T04:32:56.191Z,7.90
2022-09-20T04:38:05.521Z,9.15
2022-09-20T04:48:56.651Z,8.80
2022-09-20T04:54:04.390Z,5.15
2022-09-20T04:59:08.224Z,4.80
2022-09-20T05:04:26.277Z,2.55
2022-09-20T05:09:43.302Z,1.85
2022-09-20T05:15:08.592Z,2.03
2022-09-20T05:21:03.527Z,2.00
2022-09-20T05:26:19.452Z,2.40
2022-09-20T05:31:45.991Z,1.90
2022-09-20T05:37:08.074Z,1.90
2022-09-20T05:42:26.923Z,1.50
2022-09-20T05:47:56.241Z,1.80
2022-09-20T05:53:16.662Z,1.45
2022-09-20T05:58:24.131Z,1.75
2022-09-20T06:03:45.475Z,1.40
2022-09-20T06:08:58.878Z,1.60
2022-09-20T06:14:25.263Z,1.80
2022-09-20T06:19:47.205Z,1.50
2022-09-20T06:25:07.036Z,2.47
2022-09-20T06:30:16.960Z,2.33
2022-09-20T06:35:20.574Z,2.58
2022-09-20T06:41:07.817Z,1.90
2022-09-20T06:46:10.523Z,1.70
2022-09-20T06:51:12.477Z,1.70
2022-09-20T06:56:23.722Z,1.67
2022-09-20T07:01:30.126Z,2.20
2022-09-20T07:06:33.747Z,2.40
2022-09-20T07:11:35.588Z,2.63
2022-09-20T07:16:38.450Z,3.45
2022-09-20T07:21:40.445Z,4.63
2022-09-20T07:27:05.100Z,5.63
2022-09-20T07:32:07.018Z,6.65
2022-09-20T07:37:08.752Z,5.20
2022-09-20T07:42:10.441Z,5.18
2022-09-20T07:47:14.505Z,4.03
2022-09-20T07:52:16.283Z,2.75
2022-09-20T07:57:18.090Z,3.13
2022-09-20T08:02:19.850Z,2.90
2022-09-20T08:07:21.681Z,2.83
2022-09-20T08:17:47.451Z,1.90
2022-09-20T08:23:06.248Z,1.67
2022-09-20T08:28:10.984Z,1.75
2022-09-20T08:33:12.876Z,1.92
2022-09-20T08:43:52.179Z,2.47
2022-09-20T08:48:54.540Z,1.40
2022-09-20T08:53:58.057Z,1.67
2022-09-20T08:59:00.885Z,1.42
2022-09-20T09:04:13.612Z,1.63
2022-09-20T09:09:25.722Z,1.30
2022-09-20T09:14:49.442Z,1.10
2022-09-20T09:19:59.998Z,1.30
2022-09-20T09:25:10.698Z,1.35
2022-09-20T09:30:26.354Z,1.10
2022-09-20T09:35:31.852Z,1.15
2022-09-20T09:40:33.632Z,1.05
2022-09-20T09:45:40.199Z,1.17
2022-09-20T09:50:42.468Z,0.82
2022-09-20T09:56:03.195Z,1.17
2022-09-20T10:01:10.786Z,1.20
2022-09-20T10:06:24.976Z,1.23
2022-09-20T10:11:42.937Z,1.00
2022-09-20T10:17:17.348Z,1.60
2022-09-20T10:23:00.320Z,1.55
2022-09-20T10:28:32.229Z,1.70
2022-09-20T10:33:49.395Z,1.25
2022-09-20T10:39:05.227Z,2.47
2022-09-20T10:44:27.165Z,1.85
2022-09-20T10:49:47.216Z,2.33
2022-09-20T10:55:16.819Z,2.80
2022-09-20T11:00:25.591Z,4.22
2022-09-20T11:05:46.412Z,2.60
2022-09-20T11:10:57.357Z,3.88
2022-09-20T11:16:23.297Z,0.60
2022-09-20T11:21:28.182Z,0.90
2022-09-20T11:26:52.011Z,1.00
2022-09-20T11:32:00.985Z,0.90
2022-09-20T11:37:03.530Z,1.25
2022-09-20T11:42:07.108Z,1.50
2022-09-20T11:47:50.041Z,1.20
2022-09-20T11:53:13.429Z,1.90
2022-09-20T11:58:19.086Z,1.65
2022-09-20T12:03:24.163Z,1.70
2022-09-20T12:08:48.837Z,1.52
2022-09-20T12:14:05.667Z,1.92
2022-09-20T12:19:22.207Z,2.20
2022-09-20T12:24:32.490Z,2.80
2022-09-20T12:30:00.022Z,3.58
2022-09-20T12:35:02.090Z,3.90
2022-09-20T12:40:04.763Z,4.60
2022-09-20T12:45:16.782Z,2.70
2022-09-20T12:50:40.586Z,2.60
2022-09-20T12:56:01.144Z,1.55
2022-09-20T13:01:08.419Z,1.40
2022-09-20T13:06:16.501Z,1.40
2022-09-20T13:11:24.761Z,0.80
2022-09-20T13:16:53.978Z,0.60
2022-09-20T13:22:20.731Z,0.30
2022-09-20T13:27:48.256Z,0.60
2022-09-20T13:32:51.512Z,0.40
2022-09-20T13:37:53.198Z,0.60
2022-09-20T13:43:22.047Z,0.70
2022-09-20T13:48:25.371Z,0.50
2022-09-20T13:53:41.072Z,0.40
2022-09-20T13:58:43.913Z,0.70
2022-09-20T14:03:45.788Z,0.60
2022-09-20T14:08:51.192Z,0.70
2022-09-20T14:13:58.587Z,0.50
2022-09-20T14:19:02.054Z,0.43
2022-09-20T14:24:27.010Z,0.50
2022-09-20T14:29:34.711Z,0.50
2022-09-20T14:34:38.474Z,0.50
2022-09-20T14:39:53.232Z,0.90
2022-09-20T14:44:55.267Z,0.60
2022-09-20T14:49:58.864Z,0.40
2022-09-20T14:55:13.701Z,0.65
2022-09-20T15:00:17.120Z,0.60
2022-09-20T15:05:26.064Z,0.95
2022-09-20T15:10:27.903Z,0.60
2022-09-20T15:15:29.684Z,0.85
2022-09-20T15:20:31.415Z,0.90
2022-09-20T15:25:33.393Z,1.17
2022-09-20T15:30:35.247Z,0.40
2022-09-20T15:35:37.545Z,0.52
2022-09-20T15:40:43.703Z,1.40
2022-09-20T15:45:57.694Z,0.88
2022-09-20T15:51:08.547Z,1.17
2022-09-20T15:56:37.814Z,1.05
2022-09-20T16:01:41.693Z,1.10
2022-09-20T16:06:45.509Z,0.80
2022-09-20T16:11:48.193Z,2.42
2022-09-20T16:16:50.037Z,1.48
2022-09-20T16:21:58.327Z,1.70
2022-09-20T16:27:01.862Z,3.23
2022-09-20T16:32:05.344Z,1.95
2022-09-20T16:37:11.893Z,1.80
2022-09-20T16:42:13.769Z,2.95
2022-09-20T16:47:23.976Z,2.30
2022-09-20T16:52:26.537Z,3.33
2022-09-20T16:57:28.833Z,1.70
2022-09-20T17:02:30.543Z,7.60
2022-09-20T17:07:32.564Z,2.80
2022-09-20T17:12:41.309Z,2.67
2022-09-20T17:17:43.044Z,3.10
2022-09-20T17:22:45.186Z,2.40
2022-09-20T17:27:51.432Z,2.72
2022-09-20T17:32:53.621Z,2.50
2022-09-20T17:37:55.368Z,3.80
2022-09-20T17:42:57.080Z,3.53
2022-09-20T17:47:58.809Z,3.92
2022-09-20T17:53:00.546Z,4.22
2022-09-20T17:58:02.320Z,4.35
2022-09-20T18:03:04.991Z,5.18
2022-09-20T18:08:06.900Z,3.95
2022-09-20T18:13:08.627Z,3.88
2022-09-20T18:18:11.001Z,4.50
2022-09-20T18:23:12.921Z,5.32
2022-09-20T18:28:14.614Z,6.15
2022-09-20T18:33:17.768Z,7.45
2022-09-20T18:38:19.476Z,6.20
2022-09-20T18:43:21.200Z,5.40
2022-09-20T18:48:33.500Z,5.63
2022-09-20T18:53:37.624Z,4.80
2022-09-20T18:58:40.000Z,7.38
2022-09-20T19:04:04.208Z,6.50
2022-09-20T19:09:13.076Z,5.90
2022-09-20T19:14:27.299Z,5.40
2022-09-20T19:19:50.857Z,5.47
2022-09-20T19:25:07.716Z,5.82
2022-09-20T19:30:14.068Z,5.93
2022-09-20T19:35:28.412Z,5.43
2022-09-20T19:40:48.828Z,4.45
2022-09-20T19:46:13.301Z,5.80
2022-09-20T19:51:17.038Z,5.15
2022-09-20T19:56:27.624Z,8.38
2022-09-20T20:01:30.238Z,5.63
2022-09-20T20:07:03.165Z,4.75
2022-09-20T20:12:14.902Z,4.32
2022-09-20T20:17:38.210Z,4.57
2022-09-20T20:22:57.261Z,4.38
2022-09-20T20:27:59.031Z,4.53
2022-09-20T20:33:00.894Z,5.18
2022-09-20T20:38:05.840Z,5.03
2022-09-20T20:43:09.369Z,4.68
2022-09-20T20:48:11.246Z,8.27
2022-09-20T20:53:13.095Z,4.72
2022-09-20T20:58:14.815Z,5.00
2022-09-20T21:03:16.524Z,5.25
2022-09-20T21:08:18.255Z,5.60
2022-09-20T21:13:20.143Z,5.05
2022-09-20T21:18:21.877Z,7.00
2022-09-20T21:23:23.614Z,6.80
2022-09-20T21:28:25.377Z,6.50
2022-09-20T21:33:30.968Z,6.10
2022-09-20T21:38:35.402Z,5.57
2022-09-20T21:43:37.829Z,6.18
2022-09-20T21:48:39.888Z,5.90
2022-09-20T21:53:41.962Z,6.40
2022-09-20T21:58:45.875Z,6.30
2022-09-20T22:03:53.026Z,5.05
2022-09-20T22:09:03.605Z,6.43
2022-09-20T22:14:06.513Z,5.80
2022-09-20T22:19:10.931Z,4.50
2022-09-20T22:24:13.787Z,4.90
2022-09-20T22:29:16.947Z,5.20
2022-09-20T22:34:20.526Z,4.32
2022-09-20T22:39:22.217Z,4.93
2022-09-20T22:44:23.917Z,5.18
2022-09-20T22:49:25.607Z,4.57
2022-09-20T22:54:27.358Z,4.75
2022-09-20T22:59:29.058Z,4.72
2022-09-20T23:04:30.834Z,4.68
2022-09-20T23:09:32.586Z,3.90
2022-09-20T23:14:34.282Z,3.17
2022-09-20T23:19:35.972Z,3.88
2022-09-20T23:24:37.680Z,3.67
2022-09-20T23:29:39.378Z,3.70
2022-09-20T23:34:41.092Z,3.65
2022-09-20T23:39:42.818Z,2.97
2022-09-20T23:44:44.575Z,3.20
2022-09-20T23:49:46.322Z,3.58
2022-09-20T23:54:48.007Z,3.47
2022-09-20T23:59:49.702Z,3.83
